Time;durP1;ratioP1;P1;durP2;ratioP2;P2;SDS_P1;SDS_P2;PMS_P1;PMS_P2;Temp;Humidity;BMP_temperature;BMP_pressure;BME280_temperature;BME280_humidity;BME280_pressure;Samples;Min_cycle;Max_cycle;Signal;HPM_P1;HPM_P2
2021/04/22 00:01:29;;;;;;;8.02;6.40;;;11.00;66.20;;;;;;5015697;28;20505;-58
2021/04/22 00:03:54;;;;;;;7.75;6.47;;;11.00;66.10;;;;;;5001719;28;20045;-59
2021/04/22 00:06:20;;;;;;;8.93;6.80;;;11.10;66.20;;;;;;5015290;28;20485;-59
2021/04/22 00:08:46;;;;;;;7.05;6.35;;;11.10;66.20;;;;;;5014962;28;20022;-59
2021/04/22 00:11:12;;;;;;;7.75;6.78;;;11.10;66.20;;;;;;5015434;28;20470;-60
2021/04/22 00:13:38;;;;;;;8.63;7.10;;;11.10;66.20;;;;;;5015484;28;20030;-59
2021/04/22 00:16:04;;;;;;;10.27;7.03;;;11.10;66.00;;;;;;5015330;28;20026;-59
2021/04/22 00:18:31;;;;;;;9.60;6.68;;;11.10;66.20;;;;;;5015935;28;20022;-59
2021/04/22 00:20:56;;;;;;;8.23;7.03;;;11.10;66.10;;;;;;5006632;28;20019;-60
2021/04/22 00:23:22;;;;;;;7.85;6.50;;;11.20;65.90;;;;;;5009780;28;20029;-60
2021/04/22 00:25:48;;;;;;;7.57;6.15;;;11.20;65.70;;;;;;5005274;28;20104;-60
2021/04/22 00:28:15;;;;;;;7.45;6.40;;;11.20;65.70;;;;;;5002409;28;20105;-60
2021/04/22 00:30:43;;;;;;;8.57;6.78;;;11.20;65.30;;;;;;5015934;28;20030;-57
2021/04/22 00:33:12;;;;;;;9.25;6.90;;;11.20;65.40;;;;;;5014573;28;20398;-60
2021/04/22 00:35:38;;;;;;;7.55;6.72;;;11.10;65.40;;;;;;5009886;28;20087;-60
2021/04/22 00:38:05;;;;;;;10.38;7.13;;;11.10;65.40;;;;;;5002238;28;20026;-58
2021/04/22 00:40:32;;;;;;;7.72;6.65;;;11.10;65.70;;;;;;5001613;28;20030;-60
2021/04/22 00:43:04;;;;;;;8.45;7.07;;;11.10;65.70;;;;;;5013230;28;20078;-58
2021/04/22 00:45:30;;;;;;;9.48;7.63;;;11.10;65.60;;;;;;5014493;28;20022;-60
2021/04/22 00:47:55;;;;;;;10.52;7.75;;;11.10;65.50;;;;;;5015232;28;20433;-58
2021/04/22 00:50:25;;;;;;;8.98;7.82;;;11.10;65.40;;;;;;5015347;28;20092;-60
2021/04/22 00:52:55;;;;;;;11.07;8.02;;;11.10;65.60;;;;;;5003496;28;20026;-60
2021/04/22 00:55:22;;;;;;;11.03;7.67;;;11.10;65.60;;;;;;5013966;28;20077;-60
2021/04/22 00:57:48;;;;;;;12.93;7.70;;;11.10;65.60;;;;;;5014766;28;20408;-59
2021/04/22 01:00:17;;;;;;;9.07;7.35;;;11.10;65.50;;;;;;5010910;28;20026;-60
2021/04/22 01:02:43;;;;;;;9.85;8.18;;;11.10;65.30;;;;;;5015330;28;20030;-60
2021/04/22 01:05:21;;;;;;;11.27;8.10;;;11.10;65.30;;;;;;5014215;28;20120;-60
2021/04/22 01:07:47;;;;;;;11.73;8.00;;;11.10;65.30;;;;;;5014589;28;20038;-60
2021/04/22 01:10:18;;;;;;;9.43;7.47;;;11.10;65.10;;;;;;5002091;28;20053;-60
2021/04/22 01:12:44;;;;;;;9.10;7.20;;;11.10;64.90;;;;;;5014481;28;20524;-60
2021/04/22 01:15:13;;;;;;;10.50;7.82;;;11.10;64.80;;;;;;5014985;28;20030;-60
2021/04/22 01:17:39;;;;;;;13.80;7.80;;;11.10;64.80;;;;;;5016047;28;20052;-60
2021/04/22 01:20:23;;;;;;;10.15;8.13;;;11.20;65.00;;;;;;5002195;28;20482;-60
2021/04/22 01:22:50;;;;;;;12.43;7.68;;;11.10;65.00;;;;;;5015497;28;20022;-59
2021/04/22 01:25:22;;;;;;;8.40;7.15;;;11.10;65.10;;;;;;5011240;28;20062;-60
2021/04/22 01:27:48;;;;;;;9.38;7.03;;;11.20;65.10;;;;;;5006919;28;20049;-60
2021/04/22 01:30:22;;;;;;;9.52;6.95;;;11.20;65.00;;;;;;5015747;28;20030;-58
2021/04/22 01:32:49;;;;;;;8.70;7.28;;;11.20;65.10;;;;;;5007713;28;20367;-58
2021/04/22 01:35:18;;;;;;;10.50;7.75;;;11.20;65.20;;;;;;5016501;28;20041;-60
2021/04/22 01:37:44;;;;;;;9.88;7.53;;;11.10;65.10;;;;;;5018407;28;20108;-60
2021/04/22 01:40:11;;;;;;;8.30;6.95;;;11.10;65.00;;;;;;5018415;28;20076;-59
2021/04/22 01:42:37;;;;;;;9.40;7.38;;;11.10;65.10;;;;;;5017690;28;20499;-59
2021/04/22 01:45:05;;;;;;;9.63;7.55;;;11.10;65.00;;;;;;5016079;28;20481;-60
2021/04/22 01:47:30;;;;;;;8.52;6.53;;;11.10;65.10;;;;;;5018306;28;20025;-60
2021/04/22 01:49:56;;;;;;;9.50;7.70;;;11.00;64.90;;;;;;5018120;28;20030;-60
2021/04/22 01:52:22;;;;;;;14.05;7.72;;;11.10;65.00;;;;;;5011000;28;20041;-60
2021/04/22 01:54:48;;;;;;;9.48;7.30;;;11.00;65.10;;;;;;5011881;28;20363;-60
2021/04/22 01:57:14;;;;;;;9.65;8.18;;;10.90;65.20;;;;;;5017631;28;20030;-60
2021/04/22 01:59:39;;;;;;;11.23;8.30;;;10.90;65.30;;;;;;5017446;28;20391;-59
2021/04/22 02:02:05;;;;;;;11.07;8.02;;;10.90;65.20;;;;;;5018205;28;20393;-59
2021/04/22 02:04:31;;;;;;;11.52;8.90;;;10.90;65.30;;;;;;5017912;28;20065;-60
2021/04/22 02:06:57;;;;;;;10.68;8.95;;;10.90;65.40;;;;;;5017474;28;20046;-59
2021/04/22 02:09:22;;;;;;;11.48;9.77;;;10.80;65.40;;;;;;5017913;28;20433;-57
2021/04/22 02:11:48;;;;;;;10.57;8.60;;;10.80;65.30;;;;;;5017812;28;20462;-59
2021/04/22 02:14:14;;;;;;;11.93;9.20;;;10.80;65.60;;;;;;5017559;28;20077;-60
2021/04/22 02:16:40;;;;;;;12.18;8.80;;;10.70;65.40;;;;;;5017222;28;20022;-59
2021/04/22 02:19:05;;;;;;;12.05;8.88;;;10.60;65.70;;;;;;5017561;28;20458;-58
2021/04/22 02:21:32;;;;;;;12.27;8.90;;;10.60;65.60;;;;;;5017499;28;20065;-59
2021/04/22 02:23:58;;;;;;;11.60;8.50;;;10.50;65.80;;;;;;5017819;28;20466;-60
2021/04/22 02:26:24;;;;;;;12.57;9.07;;;10.40;65.80;;;;;;5017658;28;20029;-60
2021/04/22 02:28:49;;;;;;;10.75;8.40;;;10.40;66.00;;;;;;5017285;28;20025;-60
2021/04/22 02:31:15;;;;;;;11.43;8.18;;;10.30;66.10;;;;;;5016812;28;20381;-60
2021/04/22 02:33:41;;;;;;;10.15;8.57;;;10.30;66.20;;;;;;5009094;28;20022;-60
2021/04/22 02:36:07;;;;;;;11.23;8.10;;;10.30;66.30;;;;;;5015832;28;20022;-60
2021/04/22 02:38:33;;;;;;;11.07;7.85;;;10.30;66.40;;;;;;5016031;28;20400;-59
2021/04/22 02:40:59;;;;;;;11.30;8.50;;;10.30;66.50;;;;;;5015858;28;20030;-60
2021/04/22 02:43:25;;;;;;;10.85;7.90;;;10.30;66.60;;;;;;5016215;28;20049;-58
2021/04/22 02:45:53;;;;;;;12.77;8.43;;;10.30;66.60;;;;;;5014674;28;20032;-59
2021/04/22 02:48:21;;;;;;;12.75;7.60;;;10.20;66.70;;;;;;5016307;28;20025;-60
2021/04/22 02:50:49;;;;;;;11.70;8.35;;;10.20;66.80;;;;;;5016303;28;20026;-60
2021/04/22 02:53:15;;;;;;;12.82;8.52;;;10.10;66.70;;;;;;5016615;28;20432;-59
2021/04/22 02:55:43;;;;;;;11.15;8.45;;;10.10;67.00;;;;;;5016143;28;20033;-60
2021/04/22 02:58:11;;;;;;;10.48;8.70;;;10.10;67.30;;;;;;5014352;28;20519;-59
2021/04/22 03:00:37;;;;;;;10.40;8.13;;;10.10;67.60;;;;;;5009915;28;20109;-60
2021/04/22 03:03:04;;;;;;;13.07;9.02;;;10.10;67.40;;;;;;5010510;28;20057;-60
2021/04/22 03:05:30;;;;;;;10.05;8.38;;;10.20;67.70;;;;;;5013776;28;20030;-60
2021/04/22 03:07:56;;;;;;;10.88;8.90;;;10.20;67.60;;;;;;5014689;28;20057;-60
2021/04/22 03:10:24;;;;;;;10.40;9.25;;;10.20;67.70;;;;;;5007642;28;20417;-60
2021/04/22 03:12:50;;;;;;;11.13;8.13;;;10.20;67.70;;;;;;5008477;28;20153;-60
2021/04/22 03:15:16;;;;;;;13.15;7.97;;;10.20;67.90;;;;;;5015203;28;20038;-59
2021/04/22 03:17:43;;;;;;;11.32;9.30;;;10.30;67.90;;;;;;5016122;28;20490;-58
2021/04/22 03:20:11;;;;;;;14.15;8.93;;;10.30;67.90;;;;;;5015449;28;20033;-59
2021/04/22 03:22:38;;;;;;;15.40;10.02;;;10.30;68.00;;;;;;5015709;28;20091;-60
2021/04/22 03:25:04;;;;;;;15.40;10.38;;;10.40;67.90;;;;;;5010414;28;20089;-60
2021/04/22 03:27:30;;;;;;;13.75;9.93;;;10.40;67.90;;;;;;5006878;28;20080;-60
2021/04/22 03:29:57;;;;;;;14.13;9.35;;;10.40;67.90;;;;;;5015454;28;20021;-58
2021/04/22 03:32:22;;;;;;;14.48;9.10;;;10.50;67.90;;;;;;5015134;28;20026;-58
2021/04/22 03:34:48;;;;;;;12.85;8.98;;;10.50;67.90;;;;;;5005800;28;20026;-60
2021/04/22 03:37:14;;;;;;;11.80;9.20;;;10.50;67.90;;;;;;5014125;28;20029;-61
2021/04/22 03:39:40;;;;;;;12.70;8.82;;;10.60;68.00;;;;;;5015267;28;20077;-60
2021/04/22 03:42:06;;;;;;;11.82;8.88;;;10.60;68.00;;;;;;5015286;28;20029;-60
2021/04/22 03:44:32;;;;;;;14.07;8.52;;;10.70;68.00;;;;;;5014952;28;20080;-59
2021/04/22 03:46:57;;;;;;;11.55;8.93;;;10.80;67.80;;;;;;5014010;28;20417;-60
2021/04/22 03:49:23;;;;;;;11.70;8.93;;;10.80;67.80;;;;;;5015507;28;20037;-60
2021/04/22 03:51:49;;;;;;;11.98;9.13;;;10.90;68.00;;;;;;5009848;28;20514;-60
2021/04/22 03:54:14;;;;;;;12.77;8.60;;;11.00;68.20;;;;;;5006202;28;20049;-61
2021/04/22 03:56:40;;;;;;;11.77;9.50;;;11.10;68.50;;;;;;5014516;28;20022;-60
2021/04/22 03:59:06;;;;;;;10.95;8.20;;;11.30;68.50;;;;;;5014858;28;20729;-59
2021/04/22 04:01:31;;;;;;;11.32;8.20;;;11.50;68.40;;;;;;5015102;28;20025;-60
2021/04/22 04:03:57;;;;;;;12.75;8.98;;;11.70;68.80;;;;;;5015060;28;20025;-59
2021/04/22 04:06:23;;;;;;;10.40;8.48;;;12.00;68.50;;;;;;5014904;28;20046;-60
2021/04/22 04:08:49;;;;;;;10.60;8.20;;;12.20;68.30;;;;;;5015466;28;20018;-60
2021/04/22 04:11:14;;;;;;;10.55;7.85;;;12.50;68.30;;;;;;5015129;28;20405;-60
2021/04/22 04:13:40;;;;;;;12.02;8.50;;;12.80;67.70;;;;;;5014611;28;20026;-60
2021/04/22 04:16:06;;;;;;;9.27;8.20;;;13.10;67.30;;;;;;5014645;28;20062;-58
2021/04/22 04:18:32;;;;;;;11.00;8.80;;;13.50;66.40;;;;;;5009027;28;20026;-60
2021/04/22 04:20:58;;;;;;;10.00;8.15;;;13.90;65.70;;;;;;5007273;28;20029;-59
2021/04/22 04:23:25;;;;;;;11.45;8.88;;;14.30;64.70;;;;;;5014266;28;20029;-60
2021/04/22 04:25:51;;;;;;;10.40;8.23;;;14.70;63.40;;;;;;5014775;28;20108;-60
2021/04/22 04:28:17;;;;;;;11.93;8.60;;;15.10;62.40;;;;;;5014376;28;20033;-59
2021/04/22 04:30:43;;;;;;;11.10;8.50;;;15.50;61.30;;;;;;5013774;28;20026;-60
2021/04/22 04:33:09;;;;;;;12.82;8.20;;;15.80;60.60;;;;;;5014431;28;20037;-59
2021/04/22 04:35:34;;;;;;;10.25;7.63;;;16.10;60.20;;;;;;5014050;28;20022;-60
2021/04/22 04:38:02;;;;;;;11.55;8.25;;;16.40;59.60;;;;;;5014877;28;20034;-58
2021/04/22 04:40:28;;;;;;;12.10;8.18;;;16.90;59.10;;;;;;5023948;28;20046;-60
2021/04/22 04:42:54;;;;;;;10.55;7.82;;;17.30;58.00;;;;;;5011782;28;20033;-58
2021/04/22 04:45:20;;;;;;;12.90;8.52;;;17.80;57.20;;;;;;5012590;28;20026;-60
2021/04/22 04:47:50;;;;;;;10.35;7.72;;;18.20;56.00;;;;;;5011992;28;20032;-60
2021/04/22 04:50:17;;;;;;;10.73;7.38;;;18.50;55.10;;;;;;5013280;28;20065;-58
2021/04/22 04:52:43;;;;;;;12.52;7.70;;;18.70;54.50;;;;;;5012997;28;20450;-60
2021/04/22 04:55:11;;;;;;;10.20;8.30;;;19.10;54.20;;;;;;5014687;28;20029;-59
2021/04/22 04:57:37;;;;;;;10.65;7.65;;;19.50;53.30;;;;;;5014620;28;20417;-59
2021/04/22 05:00:05;;;;;;;9.95;7.38;;;19.90;52.60;;;;;;5015411;28;20014;-58
2021/04/22 05:02:31;;;;;;;9.32;6.97;;;20.30;52.20;;;;;;5002866;28;20056;-59
2021/04/22 05:04:57;;;;;;;9.05;7.13;;;20.50;51.60;;;;;;5017535;28;20058;-59
2021/04/22 05:07:22;;;;;;;10.18;7.70;;;20.80;51.00;;;;;;5019315;28;20041;-61
2021/04/22 05:09:48;;;;;;;12.73;8.25;;;21.10;50.40;;;;;;5018139;28;20522;-58
2021/04/22 05:12:14;;;;;;;9.23;7.63;;;21.40;49.50;;;;;;5007391;28;20054;-59
2021/04/22 05:14:39;;;;;;;7.82;7.00;;;21.50;49.10;;;;;;5018784;28;20029;-59
2021/04/22 05:17:05;;;;;;;8.25;7.05;;;21.70;49.30;;;;;;5019507;28;20465;-59
2021/04/22 05:19:31;;;;;;;8.77;7.40;;;22.00;48.80;;;;;;5019343;28;20009;-59
2021/04/22 05:21:57;;;;;;;10.63;8.23;;;22.30;48.10;;;;;;5019654;28;20022;-59
2021/04/22 05:24:23;;;;;;;9.20;7.50;;;22.60;47.80;;;;;;5006333;28;20030;-58
2021/04/22 05:26:48;;;;;;;8.48;6.70;;;23.00;47.40;;;;;;5004865;28;20068;-58
2021/04/22 05:29:14;;;;;;;8.25;7.00;;;23.30;46.90;;;;;;5005580;28;20076;-59
2021/04/22 05:31:40;;;;;;;10.20;7.60;;;23.60;45.70;;;;;;5017832;28;20059;-58
2021/04/22 05:34:05;;;;;;;9.77;7.40;;;23.60;45.00;;;;;;5016959;28;20022;-59
2021/04/22 05:36:31;;;;;;;12.30;8.52;;;23.30;45.30;;;;;;5013759;28;20457;-58
2021/04/22 05:38:57;;;;;;;8.23;6.82;;;22.80;45.40;;;;;;5007670;28;20037;-59
2021/04/22 05:41:23;;;;;;;9.85;7.68;;;22.50;45.90;;;;;;5009290;28;20029;-57
2021/04/22 05:43:49;;;;;;;11.25;8.93;;;21.90;46.40;;;;;;5001318;28;20022;-59
2021/04/22 05:46:14;;;;;;;10.20;7.90;;;21.40;47.00;;;;;;5009513;28;20478;-53
2021/04/22 05:48:40;;;;;;;9.77;8.45;;;20.90;47.40;;;;;;5013017;28;20037;-53
2021/04/22 05:51:06;;;;;;;13.27;8.13;;;20.40;48.20;;;;;;5012194;28;20030;-49
2021/04/22 05:53:32;;;;;;;12.07;8.30;;;20.10;48.60;;;;;;5003327;28;20072;-51
2021/04/22 05:55:57;;;;;;;9.75;8.70;;;19.70;49.10;;;;;;5005650;28;20112;-52
2021/04/22 05:58:23;;;;;;;10.60;7.82;;;19.30;49.60;;;;;;5003653;28;20033;-51
2021/04/22 06:00:49;;;;;;;10.48;7.80;;;18.90;50.20;;;;;;5003706;28;20474;-50
2021/04/22 06:03:15;;;;;;;9.77;7.68;;;18.70;50.80;;;;;;5010848;28;20053;-50
2021/04/22 06:05:41;;;;;;;10.48;8.52;;;18.50;51.00;;;;;;5011197;28;20518;-51
2021/04/22 06:08:07;;;;;;;11.20;7.95;;;18.30;51.20;;;;;;5005976;28;20041;-49
2021/04/22 06:10:33;;;;;;;10.50;8.00;;;18.00;51.40;;;;;;5010324;28;20029;-49
2021/04/22 06:12:58;;;;;;;9.45;7.40;;;17.80;51.80;;;;;;5014530;28;20033;-50
2021/04/22 06:15:24;;;;;;;8.57;6.93;;;17.60;51.90;;;;;;5008617;28;20038;-52
2021/04/22 06:17:50;;;;;;;9.88;8.15;;;17.50;52.40;;;;;;5007016;28;20022;-50
2021/04/22 06:20:21;;;;;;;11.85;8.30;;;17.40;52.90;;;;;;4989648;28;20018;-52
2021/04/22 06:22:49;;;;;;;9.70;8.00;;;17.30;53.20;;;;;;5007959;28;20022;-51
2021/04/22 06:25:16;;;;;;;10.40;7.82;;;17.20;53.40;;;;;;5010889;28;20113;-50
2021/04/22 06:27:42;;;;;;;10.65;7.97;;;17.20;53.80;;;;;;5002027;28;20094;-53
2021/04/22 06:30:09;;;;;;;12.43;8.65;;;17.10;54.10;;;;;;5007561;28;20172;-53
2021/04/22 06:32:35;;;;;;;10.68;8.80;;;17.00;54.20;;;;;;5010317;28;20958;-53
2021/04/22 06:35:01;;;;;;;11.63;8.32;;;17.00;54.90;;;;;;5008521;28;20045;-53
2021/04/22 06:37:27;;;;;;;13.98;9.02;;;17.00;55.10;;;;;;5005616;28;20093;-57
2021/04/22 06:39:53;;;;;;;12.45;9.07;;;17.10;55.20;;;;;;5004284;28;20149;-58
2021/04/22 06:42:18;;;;;;;11.00;8.55;;;17.10;55.60;;;;;;5003920;28;20232;-58
2021/04/22 06:44:44;;;;;;;11.45;8.82;;;17.20;55.30;;;;;;5007793;28;20112;-58
2021/04/22 06:47:12;;;;;;;9.68;8.57;;;17.10;55.30;;;;;;5004557;28;20045;-58
2021/04/22 06:49:41;;;;;;;9.25;7.40;;;17.10;55.30;;;;;;5000822;28;20053;-59
2021/04/22 06:52:07;;;;;;;9.65;7.18;;;17.10;55.30;;;;;;5000727;28;20141;-58
2021/04/22 06:54:33;;;;;;;10.38;7.85;;;17.10;55.10;;;;;;5006441;28;20458;-58
2021/04/22 06:56:59;;;;;;;9.10;7.97;;;17.10;55.00;;;;;;5003937;28;20026;-58
2021/04/22 06:59:25;;;;;;;9.98;7.43;;;17.00;55.00;;;;;;5005281;28;20035;-58
2021/04/22 07:01:51;;;;;;;9.63;8.55;;;17.00;55.00;;;;;;5004561;28;20030;-58
2021/04/22 07:04:17;;;;;;;9.55;7.95;;;16.90;55.00;;;;;;4998804;28;20140;-59
2021/04/22 07:06:43;;;;;;;10.15;7.60;;;16.90;55.40;;;;;;5006313;28;20140;-57
2021/04/22 07:09:09;;;;;;;9.60;7.20;;;17.00;55.90;;;;;;5002274;28;20056;-59
2021/04/22 07:11:35;;;;;;;9.90;7.65;;;17.10;55.40;;;;;;5005603;28;20030;-58
2021/04/22 07:14:01;;;;;;;10.57;7.75;;;17.10;55.30;;;;;;5002748;28;20026;-59
2021/04/22 07:16:27;;;;;;;9.93;7.60;;;17.20;55.20;;;;;;5008665;28;20046;-58
2021/04/22 07:18:53;;;;;;;9.88;7.10;;;17.20;55.10;;;;;;5006437;28;20022;-59
2021/04/22 07:21:19;;;;;;;10.40;7.88;;;17.20;54.90;;;;;;4991719;28;20474;-56
2021/04/22 07:23:45;;;;;;;12.40;7.60;;;17.30;54.90;;;;;;5007575;28;20025;-54
2021/04/22 07:26:11;;;;;;;10.45;8.00;;;17.40;55.00;;;;;;5008580;28;20040;-56
2021/04/22 07:28:37;;;;;;;8.98;6.95;;;17.40;55.30;;;;;;4999765;28;20034;-56
2021/04/22 07:31:03;;;;;;;9.10;6.82;;;17.50;55.40;;;;;;4995434;28;20034;-57
2021/04/22 07:33:28;;;;;;;9.43;6.88;;;17.60;55.40;;;;;;5008229;28;20041;-57
2021/04/22 07:35:54;;;;;;;10.32;7.60;;;17.70;54.90;;;;;;5005246;28;20517;-57
2021/04/22 07:38:20;;;;;;;8.55;7.15;;;17.80;54.90;;;;;;4997040;28;20540;-58
2021/04/22 07:40:46;;;;;;;9.20;6.88;;;17.80;54.90;;;;;;5003044;28;20502;-58
2021/04/22 07:43:13;;;;;;;7.65;5.80;;;17.90;54.70;;;;;;4995709;28;20034;-58
2021/04/22 07:45:42;;;;;;;9.45;7.03;;;18.00;54.40;;;;;;5004809;28;20038;-59
2021/04/22 07:48:11;;;;;;;10.13;6.28;;;18.00;54.40;;;;;;5001639;28;20040;-59
2021/04/22 07:50:44;;;;;;;8.05;6.03;;;18.10;54.40;;;;;;5118892;27;20386;-59
2021/04/22 07:53:11;;;;;;;10.70;6.55;;;18.20;54.30;;;;;;5095627;28;20094;-59
2021/04/22 07:55:41;;;;;;;10.23;6.75;;;18.20;53.90;;;;;;5099831;28;20088;-59
2021/04/22 07:58:08;;;;;;;9.60;6.25;;;18.30;53.80;;;;;;5095285;28;20038;-59
2021/04/22 08:00:35;;;;;;;7.82;6.07;;;18.30;53.60;;;;;;5094975;28;20177;-58
2021/04/22 08:03:02;;;;;;;8.48;5.97;;;18.30;52.80;;;;;;5093956;28;20033;-59
2021/04/22 08:05:33;;;;;;;8.95;5.63;;;18.40;52.90;;;;;;5092152;28;20027;-58
2021/04/22 08:07:59;;;;;;;7.30;5.47;;;18.40;52.30;;;;;;5090703;28;20020;-58
2021/04/22 08:10:28;;;;;;;9.18;5.32;;;18.40;52.20;;;;;;5096433;28;20066;-59
2021/04/22 08:12:54;;;;;;;7.70;5.18;;;18.50;52.10;;;;;;5092884;28;20065;-59
2021/04/22 08:15:20;;;;;;;7.70;5.70;;;18.50;52.50;;;;;;5097358;28;20058;-59
2021/04/22 08:17:46;;;;;;;8.00;6.07;;;18.50;52.50;;;;;;5094059;28;20028;-59
2021/04/22 08:20:18;;;;;;;6.68;5.60;;;18.60;52.50;;;;;;5088950;28;20028;-58
2021/04/22 08:22:44;;;;;;;10.93;5.05;;;18.60;52.20;;;;;;5094762;28;20542;-58
2021/04/22 08:25:19;;;;;;;8.00;5.32;;;18.60;51.80;;;;;;5093037;28;20107;-58
2021/04/22 08:27:50;;;;;;;5.43;4.70;;;18.60;51.80;;;;;;5089303;28;20035;-59
2021/04/22 08:30:43;;;;;;;8.57;5.00;;;18.70;51.80;;;;;;5089786;28;20376;-59
2021/04/22 08:33:09;;;;;;;5.78;4.90;;;18.70;51.00;;;;;;5087875;28;20106;-59
2021/04/22 08:35:35;;;;;;;7.28;5.20;;;18.70;50.60;;;;;;5094250;28;20662;-59
2021/04/22 08:38:01;;;;;;;6.15;4.90;;;18.70;50.60;;;;;;5091175;28;20039;-59
2021/04/22 08:40:27;;;;;;;6.53;5.93;;;18.70;50.80;;;;;;5077922;28;20024;-58
2021/04/22 08:42:53;;;;;;;6.57;4.78;;;18.70;50.90;;;;;;5088579;28;20754;-59
2021/04/22 08:45:19;;;;;;;6.70;5.45;;;18.70;50.70;;;;;;5095211;28;20028;-59
2021/04/22 08:47:46;;;;;;;6.40;4.57;;;18.80;50.60;;;;;;5089908;28;20043;-59
2021/04/22 08:50:23;;;;;;;5.18;4.63;;;18.80;50.60;;;;;;5093502;28;20043;-59
2021/04/22 08:52:50;;;;;;;4.57;4.18;;;18.80;50.00;;;;;;5093177;28;20035;-58
2021/04/22 08:55:18;;;;;;;6.47;5.07;;;18.80;50.30;;;;;;5094263;28;20027;-59
2021/04/22 08:57:44;;;;;;;8.32;5.00;;;18.90;50.10;;;;;;5093679;28;20131;-59
2021/04/22 09:00:13;;;;;;;5.38;4.53;;;18.90;50.20;;;;;;5082903;28;20028;-60
2021/04/22 09:02:39;;;;;;;8.30;5.03;;;19.00;49.90;;;;;;5065894;28;20032;-59
2021/04/22 09:05:05;;;;;;;5.60;4.07;;;19.00;49.90;;;;;;5080387;28;20399;-59
2021/04/22 09:07:31;;;;;;;5.28;4.38;;;19.00;49.30;;;;;;5081139;28;20036;-59
2021/04/22 09:09:57;;;;;;;5.68;4.90;;;19.10;49.10;;;;;;5078875;28;20043;-59
2021/04/22 09:12:24;;;;;;;5.93;4.75;;;19.20;49.10;;;;;;5081136;28;20075;-59
2021/04/22 09:14:55;;;;;;;6.80;5.00;;;19.20;48.90;;;;;;5083173;28;20106;-59
2021/04/22 09:17:23;;;;;;;5.00;3.92;;;19.30;48.70;;;;;;5084094;28;22646;-59
2021/04/22 09:19:49;;;;;;;5.07;4.25;;;19.30;48.40;;;;;;5082187;28;20060;-59
2021/04/22 09:22:15;;;;;;;5.45;3.75;;;19.30;48.10;;;;;;5082323;28;20630;-58
2021/04/22 09:24:41;;;;;;;5.20;4.18;;;19.40;47.50;;;;;;5081695;28;20031;-59
2021/04/22 09:27:12;;;;;;;5.30;4.30;;;19.40;47.20;;;;;;5080970;28;20024;-59
2021/04/22 09:29:56;;;;;;;6.20;4.30;;;19.40;47.10;;;;;;5076380;28;20410;-58
2021/04/22 09:32:24;;;;;;;5.07;4.53;;;19.40;47.10;;;;;;5083438;28;20020;-59
2021/04/22 09:34:54;;;;;;;5.07;3.72;;;19.40;46.90;;;;;;5086006;28;20032;-59
2021/04/22 09:37:23;;;;;;;4.57;3.97;;;19.50;46.70;;;;;;5080667;28;20475;-59
2021/04/22 09:39:50;;;;;;;4.63;3.90;;;19.50;46.20;;;;;;5079665;28;20073;-59
2021/04/22 09:42:18;;;;;;;5.50;4.00;;;19.50;45.70;;;;;;5084329;28;20539;-59
2021/04/22 09:44:48;;;;;;;6.65;4.50;;;19.50;45.50;;;;;;5074110;28;20484;-59
2021/04/22 09:47:18;;;;;;;6.20;5.18;;;19.60;45.60;;;;;;5076500;28;20040;-59
2021/04/22 09:49:56;;;;;;;5.20;4.05;;;19.70;45.30;;;;;;5081045;28;20044;-59
2021/04/22 09:52:22;;;;;;;5.07;4.05;;;19.70;45.20;;;;;;5075086;28;20428;-59
2021/04/22 09:54:51;;;;;;;5.85;3.60;;;19.70;45.40;;;;;;5075045;28;20042;-59
2021/04/22 09:57:31;;;;;;;5.88;3.97;;;19.80;45.20;;;;;;5073073;28;20161;-58
2021/04/22 09:59:59;;;;;;;5.13;4.32;;;19.70;45.20;;;;;;5074245;28;20032;-58
2021/04/22 10:02:26;;;;;;;5.63;4.28;;;19.70;45.70;;;;;;5067312;28;20038;-58
2021/04/22 10:04:54;;;;;;;5.55;4.32;;;19.70;46.20;;;;;;5072560;28;20630;-59
2021/04/22 10:07:24;;;;;;;4.97;4.00;;;19.60;46.00;;;;;;5071329;28;20160;-59
2021/04/22 10:10:02;;;;;;;5.40;4.30;;;19.60;46.10;;;;;;5074100;28;20052;-59
2021/04/22 10:12:32;;;;;;;4.53;4.03;;;19.50;46.00;;;;;;5076159;28;20103;-59
2021/04/22 10:15:17;;;;;;;6.00;4.57;;;19.40;46.10;;;;;;5077775;28;21223;-58
2021/04/22 10:17:58;;;;;;;5.60;4.32;;;19.50;46.20;;;;;;5077957;28;20664;-59
2021/04/22 10:20:26;;;;;;;4.68;4.18;;;19.40;46.30;;;;;;5073422;28;20032;-59
2021/04/22 10:22:54;;;;;;;7.30;4.20;;;19.40;46.30;;;;;;5066145;28;20623;-59
2021/04/22 10:25:24;;;;;;;6.28;4.25;;;19.40;46.10;;;;;;5073001;28;20036;-58
2021/04/22 10:27:50;;;;;;;5.32;4.35;;;19.50;46.20;;;;;;5075835;28;20476;-59
2021/04/22 10:30:20;;;;;;;4.90;4.10;;;19.50;45.90;;;;;;5083933;28;20020;-59
2021/04/22 10:32:47;;;;;;;4.93;4.28;;;19.50;45.60;;;;;;5078611;28;20793;-59
2021/04/22 10:35:17;;;;;;;4.57;4.05;;;19.50;45.50;;;;;;5073702;28;20024;-58
2021/04/22 10:37:45;;;;;;;5.68;3.72;;;19.50;45.40;;;;;;5076634;28;20344;-59
2021/04/22 10:40:13;;;;;;;7.05;4.45;;;19.60;45.80;;;;;;5078463;28;20341;-59
2021/04/22 10:42:40;;;;;;;5.88;4.25;;;19.60;45.50;;;;;;5077249;28;20036;-59
2021/04/22 10:45:09;;;;;;;5.38;4.10;;;19.60;45.50;;;;;;5076021;28;20269;-59
2021/04/22 10:47:35;;;;;;;4.97;3.70;;;19.70;45.60;;;;;;5074289;28;20024;-59
2021/04/22 10:50:02;;;;;;;7.75;3.75;;;19.70;45.20;;;;;;5078744;28;20044;-58
2021/04/22 10:52:28;;;;;;;6.07;3.80;;;19.70;44.90;;;;;;5073699;28;20032;-59
2021/04/22 10:54:54;;;;;;;4.70;4.20;;;19.70;44.60;;;;;;5077093;28;20202;-58
2021/04/22 10:57:23;;;;;;;5.32;4.03;;;19.70;44.50;;;;;;5071420;28;20028;-59
2021/04/22 11:00:02;;;;;;;4.85;4.35;;;19.70;44.90;;;;;;5077303;28;20123;-58
2021/04/22 11:02:28;;;;;;;8.00;4.13;;;19.70;44.90;;;;;;5075822;28;20036;-55
2021/04/22 11:04:54;;;;;;;4.97;3.92;;;19.70;44.70;;;;;;5077910;28;20028;-51
2021/04/22 11:07:24;;;;;;;6.22;3.83;;;19.70;44.30;;;;;;5073603;28;20106;-50
2021/04/22 11:10:00;;;;;;;4.80;3.53;;;19.70;44.00;;;;;;5072464;28;20055;-53
2021/04/22 11:12:29;;;;;;;5.03;4.22;;;19.80;44.90;;;;;;5066245;28;20031;-49
2021/04/22 11:14:55;;;;;;;5.00;4.03;;;19.80;44.80;;;;;;5076784;28;20100;-51
2021/04/22 11:17:33;;;;;;;4.55;4.00;;;19.90;44.60;;;;;;5075598;28;20035;-53
2021/04/22 11:20:12;;;;;;;5.75;4.00;;;19.90;44.40;;;;;;5075941;28;20017;-49
2021/04/22 11:22:38;;;;;;;4.80;3.72;;;19.90;44.50;;;;;;5072592;28;20032;-54
2021/04/22 11:25:07;;;;;;;4.57;4.03;;;20.00;44.40;;;;;;5075115;28;20085;-52
2021/04/22 11:27:46;;;;;;;5.68;4.22;;;20.00;44.40;;;;;;5066269;28;20031;-51
2021/04/22 11:30:22;;;;;;;5.78;3.85;;;20.00;44.30;;;;;;5073596;28;20047;-54
2021/04/22 11:32:52;;;;;;;8.55;4.07;;;20.00;44.20;;;;;;5077055;28;20016;-51
2021/04/22 11:35:20;;;;;;;5.45;4.03;;;20.00;44.30;;;;;;5071209;28;20024;-53
2021/04/22 11:37:55;;;;;;;5.70;3.90;;;20.00;44.10;;;;;;5064888;28;20032;-53
2021/04/22 11:40:46;;;;;;;4.85;4.00;;;20.00;43.70;;;;;;5060217;28;20070;-53
2021/04/22 11:43:24;;;;;;;5.47;4.00;;;20.00;44.30;;;;;;5061522;28;20042;-51
2021/04/22 11:45:52;;;;;;;4.45;3.80;;;20.00;44.10;;;;;;5070133;28;20034;-51
2021/04/22 11:48:19;;;;;;;6.32;3.80;;;20.10;44.20;;;;;;5064404;28;20870;-52
2021/04/22 11:50:48;;;;;;;7.90;3.88;;;20.10;43.90;;;;;;5063094;28;20476;-50
2021/04/22 11:53:18;;;;;;;4.80;3.63;;;20.20;43.50;;;;;;5043421;28;20024;-52
2021/04/22 11:55:48;;;;;;;6.15;3.83;;;20.20;43.40;;;;;;5074175;28;20035;-52
2021/04/22 11:58:22;;;;;;;5.90;3.80;;;20.20;43.60;;;;;;5072901;28;20036;-52
2021/04/22 12:00:52;;;;;;;8.30;4.32;;;20.20;43.70;;;;;;5069797;28;20073;-54
2021/04/22 12:03:31;;;;;;;5.43;4.18;;;20.20;43.60;;;;;;5065029;28;20399;-52
2021/04/22 12:05:59;;;;;;;5.28;3.50;;;20.30;43.50;;;;;;5067131;28;20134;-53
2021/04/22 12:08:37;;;;;;;5.88;3.72;;;20.30;43.40;;;;;;5074948;28;20032;-53
2021/04/22 12:11:08;;;;;;;3.80;3.40;;;20.30;43.00;;;;;;5069852;28;20024;-50
2021/04/22 12:13:35;;;;;;;5.07;4.07;;;20.30;42.90;;;;;;5061612;28;20667;-52
2021/04/22 12:16:04;;;;;;;7.20;3.45;;;20.30;42.80;;;;;;5050066;28;20088;-51
2021/04/22 12:18:33;;;;;;;5.28;3.30;;;20.20;42.50;;;;;;5066714;28;20117;-51
2021/04/22 12:21:11;;;;;;;3.40;3.08;;;20.10;42.50;;;;;;5069372;28;20027;-53
2021/04/22 12:23:40;;;;;;;6.57;3.80;;;20.10;42.10;;;;;;5071487;28;20019;-51
2021/04/22 12:26:27;;;;;;;5.32;3.70;;;20.00;42.20;;;;;;5074376;28;20040;-50
2021/04/22 12:29:18;;;;;;;3.92;3.53;;;20.10;42.40;;;;;;5077572;28;20067;-50
2021/04/22 12:32:02;;;;;;;3.50;3.15;;;20.00;42.40;;;;;;5065153;28;20044;-53
2021/04/22 12:34:34;;;;;;;6.15;3.47;;;20.10;42.20;;;;;;5068961;28;20036;-52
2021/04/22 12:37:08;;;;;;;4.22;3.17;;;20.00;42.60;;;;;;5076632;28;20046;-51
2021/04/22 12:39:34;;;;;;;3.95;3.35;;;20.00;42.70;;;;;;5080200;28;20398;-54
2021/04/22 12:42:12;;;;;;;6.80;3.90;;;19.90;43.00;;;;;;5075571;28;20028;-53
2021/04/22 12:44:42;;;;;;;6.55;3.70;;;19.80;43.70;;;;;;5078895;28;20043;-53
2021/04/22 12:47:10;;;;;;;4.32;3.92;;;19.80;43.20;;;;;;5075437;28;20041;-52